createdAt,value
2017-10-01T00:00:47.915Z,14.10
2017-10-01T00:03:15.016Z,14.10
2017-10-01T00:05:42.040Z,14.10
2017-10-01T00:08:08.981Z,14.00
2017-10-01T00:10:50.013Z,14.00
2017-10-01T00:13:29.482Z,13.90
2017-10-01T00:16:10.983Z,13.80
2017-10-01T00:18:38.724Z,13.80
2017-10-01T00:21:05.708Z,13.70
2017-10-01T00:23:33.432Z,13.70
2017-10-01T00:26:00.303Z,13.70
2017-10-01T00:28:27.165Z,13.70
2017-10-01T00:30:54.179Z,13.70
2017-10-01T00:33:21.271Z,13.70
2017-10-01T00:35:48.200Z,13.70
2017-10-01T00:38:15.192Z,13.60
2017-10-01T00:40:42.132Z,13.50
2017-10-01T00:43:09.221Z,13.60
2017-10-01T00:45:36.433Z,13.50
2017-10-01T00:48:03.312Z,13.50
2017-10-01T00:50:30.258Z,13.50
2017-10-01T00:52:57.257Z,13.40
2017-10-01T00:55:24.329Z,13.40
2017-10-01T00:57:51.364Z,13.40
2017-10-01T01:00:18.511Z,13.40
2017-10-01T01:02:45.700Z,13.30
2017-10-01T01:05:13.751Z,13.40
2017-10-01T01:07:40.864Z,13.40
2017-10-01T01:10:07.796Z,13.30
2017-10-01T01:12:34.715Z,13.30
2017-10-01T01:15:01.596Z,13.30
2017-10-01T01:17:28.570Z,13.20
2017-10-01T01:19:55.569Z,13.20
2017-10-01T01:22:22.529Z,13.20
2017-10-01T01:24:49.590Z,13.30
2017-10-01T01:27:16.603Z,13.30
2017-10-01T01:29:43.567Z,13.30
2017-10-01T01:32:10.544Z,13.20
2017-10-01T01:34:37.600Z,13.20
2017-10-01T01:37:04.556Z,13.10
2017-10-01T01:39:31.498Z,13.00
2017-10-01T01:41:58.484Z,13.00
2017-10-01T01:44:25.419Z,13.00
2017-10-01T01:46:52.410Z,12.90
2017-10-01T01:49:19.297Z,12.90
2017-10-01T01:51:46.245Z,12.80
2017-10-01T01:54:13.269Z,12.80
2017-10-01T01:56:40.190Z,12.70
2017-10-01T01:59:07.196Z,12.80
2017-10-01T02:01:34.194Z,12.80
2017-10-01T02:04:01.087Z,12.70
2017-10-01T02:06:27.987Z,12.80
2017-10-01T02:08:55.048Z,12.80
2017-10-01T02:11:21.932Z,12.80
2017-10-01T02:13:48.940Z,12.90
2017-10-01T02:16:15.952Z,12.90
2017-10-01T02:18:42.859Z,12.90
2017-10-01T02:21:09.825Z,12.90
2017-10-01T02:23:36.822Z,12.80
2017-10-01T02:26:03.738Z,12.80
2017-10-01T02:28:30.726Z,12.80
2017-10-01T02:30:57.851Z,12.70
2017-10-01T02:33:24.829Z,12.70
2017-10-01T02:35:51.896Z,12.70
2017-10-01T02:38:18.895Z,12.60
2017-10-01T02:40:45.876Z,12.50
2017-10-01T02:43:12.933Z,12.40
2017-10-01T02:45:39.901Z,12.40
2017-10-01T02:48:06.872Z,12.30
2017-10-01T02:50:33.797Z,12.30
2017-10-01T02:53:00.790Z,12.30
2017-10-01T02:55:28.510Z,12.20
2017-10-01T02:57:55.485Z,12.20
2017-10-01T03:00:22.539Z,12.20
2017-10-01T03:02:49.500Z,12.20
2017-10-01T03:05:16.523Z,12.20
2017-10-01T03:07:43.480Z,12.10
2017-10-01T03:10:10.517Z,12.10
2017-10-01T03:12:37.514Z,12.10
2017-10-01T03:15:04.504Z,12.10
2017-10-01T03:17:31.429Z,12.10
2017-10-01T03:19:58.462Z,12.20
2017-10-01T03:22:25.466Z,12.20
2017-10-01T03:24:52.421Z,12.20
2017-10-01T03:27:19.455Z,12.30
2017-10-01T03:29:46.455Z,12.30
2017-10-01T03:32:13.460Z,12.30
2017-10-01T03:34:40.427Z,12.30
2017-10-01T03:37:07.497Z,12.30
2017-10-01T03:39:34.552Z,12.20
2017-10-01T03:42:01.502Z,12.20
2017-10-01T03:44:28.504Z,12.20
2017-10-01T03:46:56.327Z,12.20
2017-10-01T03:49:23.319Z,12.10
2017-10-01T03:51:50.286Z,12.10
2017-10-01T03:54:17.313Z,12.20
2017-10-01T03:56:44.299Z,12.20
2017-10-01T03:59:11.345Z,12.20
2017-10-01T04:01:38.581Z,12.20
2017-10-01T04:04:06.184Z,12.30
2017-10-01T04:06:33.067Z,12.30
2017-10-01T04:09:00.741Z,12.30
2017-10-01T04:11:27.607Z,12.30
2017-10-01T04:13:54.599Z,12.30
2017-10-01T04:16:21.528Z,12.30
2017-10-01T04:18:48.465Z,12.40
2017-10-01T04:21:15.391Z,12.30
2017-10-01T04:23:42.308Z,12.30
2017-10-01T04:26:12.328Z,12.40
2017-10-01T04:28:42.353Z,12.40
2017-10-01T04:31:10.072Z,12.40
2017-10-01T04:33:36.952Z,12.40
2017-10-01T04:36:04.670Z,12.40
2017-10-01T04:38:31.607Z,12.40
2017-10-01T04:40:58.478Z,12.40
2017-10-01T04:43:25.408Z,12.40
2017-10-01T04:45:52.304Z,12.50
2017-10-01T04:48:19.315Z,12.50
2017-10-01T04:50:46.340Z,12.40
2017-10-01T04:53:13.288Z,12.50
2017-10-01T04:55:40.225Z,12.50
2017-10-01T04:58:07.187Z,12.50
2017-10-01T05:00:34.112Z,12.40
2017-10-01T05:03:00.990Z,12.40
2017-10-01T05:05:27.911Z,12.30
2017-10-01T05:07:54.831Z,12.20
2017-10-01T05:10:21.752Z,12.20
2017-10-01T05:12:48.631Z,12.10
2017-10-01T05:15:15.568Z,12.10
2017-10-01T05:17:42.424Z,12.10
2017-10-01T05:20:09.460Z,12.00
2017-10-01T05:22:36.344Z,12.00
2017-10-01T05:25:03.227Z,12.00
2017-10-01T05:27:30.227Z,12.00
2017-10-01T05:29:57.086Z,12.00
2017-10-01T05:32:24.028Z,12.00
2017-10-01T05:34:50.907Z,12.00
2017-10-01T05:37:17.779Z,11.90
2017-10-01T05:39:45.472Z,11.90
2017-10-01T05:42:12.359Z,11.90
2017-10-01T05:44:39.277Z,11.90
2017-10-01T05:47:06.204Z,11.90
2017-10-01T05:49:33.068Z,11.90
2017-10-01T05:52:00.025Z,11.90
2017-10-01T05:54:26.895Z,11.90
2017-10-01T05:56:54.580Z,11.90
2017-10-01T05:59:21.500Z,11.90
2017-10-01T06:01:48.352Z,11.90
2017-10-01T06:04:16.021Z,11.90
2017-10-01T06:06:43.620Z,12.00
2017-10-01T06:09:10.564Z,12.00
2017-10-01T06:11:37.423Z,12.10
2017-10-01T06:14:04.379Z,12.20
2017-10-01T06:16:31.358Z,12.30
2017-10-01T06:18:58.299Z,12.30
2017-10-01T06:21:25.225Z,12.30
2017-10-01T06:23:52.074Z,12.40
2017-10-01T06:26:18.989Z,12.50
2017-10-01T06:28:45.916Z,12.70
2017-10-01T06:31:12.832Z,12.90
2017-10-01T06:33:39.752Z,13.00
2017-10-01T06:36:06.705Z,13.20
2017-10-01T06:38:33.745Z,13.30
2017-10-01T06:41:00.617Z,13.40
2017-10-01T06:43:27.484Z,13.40
2017-10-01T06:45:54.472Z,13.40
2017-10-01T06:48:21.425Z,13.30
2017-10-01T06:50:48.348Z,13.30
2017-10-01T06:53:16.033Z,13.30
2017-10-01T06:55:43.016Z,13.30
2017-10-01T06:58:10.615Z,13.40
2017-10-01T07:00:37.514Z,13.40
2017-10-01T07:03:05.236Z,13.50
2017-10-01T07:05:36.220Z,13.50
2017-10-01T07:08:05.915Z,13.70
2017-10-01T07:10:33.046Z,13.70
2017-10-01T07:12:59.999Z,13.70
2017-10-01T07:15:31.329Z,13.80
2017-10-01T07:17:59.064Z,13.80
2017-10-01T07:20:25.986Z,13.80
2017-10-01T07:22:52.945Z,13.80
2017-10-01T07:25:19.823Z,13.80
2017-10-01T07:27:48.085Z,13.80
2017-10-01T07:30:21.240Z,13.90
2017-10-01T07:32:49.187Z,14.00
2017-10-01T07:35:16.163Z,14.10
2017-10-01T07:37:43.116Z,14.20
2017-10-01T07:40:11.673Z,14.30
2017-10-01T07:42:38.662Z,14.30
2017-10-01T07:45:06.297Z,14.30
2017-10-01T07:47:41.667Z,14.30
2017-10-01T07:50:10.297Z,14.30
2017-10-01T07:52:37.306Z,14.20
2017-10-01T07:55:05.045Z,14.30
2017-10-01T07:57:43.491Z,14.40
2017-10-01T08:00:19.788Z,14.40
2017-10-01T08:02:47.252Z,14.30
2017-10-01T08:05:15.116Z,14.30
2017-10-01T08:07:52.751Z,14.40
2017-10-01T08:10:21.434Z,14.40
2017-10-01T08:12:48.297Z,14.60
2017-10-01T08:15:18.103Z,14.70
2017-10-01T08:17:45.492Z,14.90
2017-10-01T08:20:16.691Z,15.20
2017-10-01T08:22:50.090Z,15.40
2017-10-01T08:25:28.924Z,15.50
2017-10-01T08:27:58.579Z,15.80
2017-10-01T08:30:29.493Z,15.80
2017-10-01T08:32:59.768Z,15.90
2017-10-01T08:35:38.318Z,15.90
2017-10-01T08:38:17.724Z,16.00
2017-10-01T08:40:49.169Z,16.00
2017-10-01T08:43:24.364Z,16.10
2017-10-01T08:45:51.331Z,16.10
2017-10-01T08:48:18.201Z,16.60
2017-10-01T08:50:45.206Z,16.80
2017-10-01T08:53:12.348Z,17.20
2017-10-01T08:55:40.438Z,17.20
2017-10-01T08:58:08.207Z,17.10
2017-10-01T09:00:35.176Z,17.10
2017-10-01T09:03:02.751Z,18.50
2017-10-01T09:05:30.240Z,22.30
2017-10-01T09:07:57.160Z,24.90
2017-10-01T09:10:24.079Z,26.80
2017-10-01T09:12:51.043Z,28.20
2017-10-01T09:15:19.928Z,29.70
2017-10-01T09:17:57.048Z,29.20
2017-10-01T09:20:30.137Z,30.00
2017-10-01T09:22:59.847Z,28.40
2017-10-01T09:25:27.187Z,29.60
2017-10-01T09:27:54.493Z,28.70
2017-10-01T09:30:21.336Z,27.30
2017-10-01T09:32:48.254Z,26.30
2017-10-01T09:35:15.194Z,25.60
2017-10-01T09:37:42.045Z,24.90
2017-10-01T09:40:08.960Z,24.60
2017-10-01T09:42:35.822Z,24.40
2017-10-01T09:45:02.748Z,23.90
2017-10-01T09:47:29.649Z,23.60
2017-10-01T09:49:56.587Z,22.30
2017-10-01T09:52:24.289Z,21.40
2017-10-01T09:54:55.285Z,21.40
2017-10-01T09:57:22.967Z,21.30
2017-10-01T09:59:52.177Z,21.30
2017-10-01T10:02:20.555Z,21.40
2017-10-01T10:04:48.188Z,21.90
2017-10-01T10:07:15.120Z,22.20
2017-10-01T10:09:42.075Z,22.20
2017-10-01T10:12:10.397Z,21.50
2017-10-01T10:14:41.980Z,21.50
2017-10-01T10:17:09.065Z,21.60
2017-10-01T10:19:36.036Z,22.00
2017-10-01T10:22:05.161Z,21.80
2017-10-01T10:24:33.617Z,21.50
2017-10-01T10:27:06.061Z,21.00
2017-10-01T10:29:36.217Z,21.10
2017-10-01T10:32:06.554Z,21.10
2017-10-01T10:34:34.225Z,21.00
2017-10-01T10:37:01.182Z,20.80
2017-10-01T10:39:29.675Z,21.00
2017-10-01T10:41:56.564Z,21.00
2017-10-01T10:44:30.814Z,21.50
2017-10-01T10:47:08.158Z,21.70
2017-10-01T10:49:39.482Z,22.20
2017-10-01T10:52:11.749Z,22.30
2017-10-01T10:54:42.091Z,22.50
2017-10-01T10:57:09.602Z,23.00
2017-10-01T10:59:39.521Z,23.00
2017-10-01T11:02:15.292Z,23.00
2017-10-01T11:04:47.081Z,23.30
2017-10-01T11:07:13.998Z,22.90
2017-10-01T11:09:41.029Z,22.20
2017-10-01T11:12:10.594Z,22.30
2017-10-01T11:14:37.529Z,22.30
2017-10-01T11:17:05.309Z,22.80
2017-10-01T11:19:33.035Z,22.80
2017-10-01T11:21:59.987Z,22.80
2017-10-01T11:24:26.981Z,22.80
2017-10-01T11:26:53.889Z,22.80
2017-10-01T11:29:20.823Z,22.30
2017-10-01T11:31:47.736Z,22.20
2017-10-01T11:34:14.600Z,22.20
2017-10-01T11:36:42.525Z,22.40
2017-10-01T11:39:09.500Z,22.50
2017-10-01T11:41:37.628Z,22.70
2017-10-01T11:44:06.452Z,22.80
2017-10-01T11:46:33.428Z,22.80
2017-10-01T11:49:00.480Z,22.50
2017-10-01T11:51:27.476Z,22.30
2017-10-01T11:53:54.345Z,22.40
2017-10-01T11:56:21.297Z,21.90
2017-10-01T11:58:48.315Z,21.50
2017-10-01T12:01:16.019Z,21.50
2017-10-01T12:03:42.937Z,21.50
2017-10-01T12:06:09.796Z,21.00
2017-10-01T12:08:38.236Z,20.70
2017-10-01T12:11:05.900Z,21.00
2017-10-01T12:13:33.520Z,21.40
2017-10-01T12:16:00.465Z,21.30
2017-10-01T12:18:27.348Z,21.20
2017-10-01T12:20:54.666Z,21.50
2017-10-01T12:23:22.056Z,21.00
2017-10-01T12:25:49.522Z,20.70
2017-10-01T12:28:16.677Z,21.10
2017-10-01T12:30:44.260Z,21.40
2017-10-01T12:33:11.285Z,21.30
2017-10-01T12:35:39.066Z,21.70
2017-10-01T12:38:06.681Z,21.60
2017-10-01T12:40:33.644Z,21.60
2017-10-01T12:43:00.544Z,21.40
2017-10-01T12:45:27.531Z,21.70
2017-10-01T12:47:54.401Z,21.50
2017-10-01T12:50:22.047Z,21.20
2017-10-01T12:52:48.984Z,21.20
2017-10-01T12:55:15.881Z,21.20
2017-10-01T12:57:42.812Z,21.20
2017-10-01T13:00:16.347Z,21.20
2017-10-01T13:02:43.284Z,21.20
2017-10-01T13:05:10.228Z,21.00
2017-10-01T13:07:37.168Z,20.90
2017-10-01T13:10:04.040Z,21.00
2017-10-01T13:12:31.045Z,21.10
2017-10-01T13:14:58.733Z,21.10
2017-10-01T13:17:25.654Z,21.10
2017-10-01T13:19:55.452Z,21.10
2017-10-01T13:22:23.192Z,20.70
2017-10-01T13:24:50.083Z,20.70
2017-10-01T13:27:16.939Z,20.60
2017-10-01T13:29:43.965Z,20.70
2017-10-01T13:32:11.695Z,20.60
2017-10-01T13:34:38.605Z,20.60
2017-10-01T13:37:05.531Z,20.60
2017-10-01T13:39:32.378Z,20.70
2017-10-01T13:41:59.228Z,20.80
2017-10-01T13:44:37.136Z,20.80
2017-10-01T13:47:04.192Z,20.70
2017-10-01T13:49:31.084Z,20.60
2017-10-01T13:51:58.052Z,20.80
2017-10-01T13:54:25.691Z,20.80
2017-10-01T13:56:52.561Z,20.80
2017-10-01T13:59:19.509Z,20.70
2017-10-01T14:01:46.410Z,20.60
2017-10-01T14:04:13.735Z,20.70
2017-10-01T14:06:41.449Z,20.60
2017-10-01T14:09:08.307Z,20.60
2017-10-01T14:11:35.181Z,20.50
2017-10-01T14:14:04.508Z,20.50
2017-10-01T14:16:31.702Z,20.50
2017-10-01T14:18:58.741Z,20.20
2017-10-01T14:21:25.583Z,20.00
2017-10-01T14:23:52.597Z,19.80
2017-10-01T14:26:19.460Z,19.70
2017-10-01T14:28:46.326Z,19.60
2017-10-01T14:31:21.322Z,19.60
2017-10-01T14:33:48.633Z,19.50
2017-10-01T14:36:16.085Z,19.50
2017-10-01T14:38:43.006Z,19.50
2017-10-01T14:41:09.907Z,19.60
2017-10-01T14:43:36.896Z,19.70
2017-10-01T14:46:03.827Z,19.70
2017-10-01T14:48:31.575Z,19.60
2017-10-01T14:51:02.737Z,19.60
2017-10-01T14:53:38.351Z,19.60
2017-10-01T14:56:10.141Z,19.60
2017-10-01T14:58:37.149Z,19.70
2017-10-01T15:01:04.306Z,19.70
2017-10-01T15:03:32.039Z,19.70
2017-10-01T15:05:59.018Z,19.70
2017-10-01T15:08:26.002Z,19.70
2017-10-01T15:10:52.923Z,19.70
2017-10-01T15:13:20.049Z,19.60
2017-10-01T15:15:47.124Z,19.50
2017-10-01T15:18:15.181Z,19.50
2017-10-01T15:20:46.843Z,19.50
2017-10-01T15:23:19.094Z,19.60
2017-10-01T15:25:50.395Z,19.60
2017-10-01T15:28:17.840Z,19.40
2017-10-01T15:30:51.376Z,19.30
2017-10-01T15:33:18.632Z,19.20
2017-10-01T15:35:47.259Z,19.10
2017-10-01T15:38:15.050Z,19.00
2017-10-01T15:40:42.840Z,18.80
2017-10-01T15:43:13.861Z,18.80
2017-10-01T15:45:40.825Z,18.70
2017-10-01T15:48:08.648Z,18.70
2017-10-01T15:50:38.503Z,18.60
2017-10-01T15:53:10.718Z,18.50
2017-10-01T15:55:43.702Z,18.40
2017-10-01T15:58:10.575Z,18.30
2017-10-01T16:00:38.604Z,18.20
2017-10-01T16:03:05.469Z,18.20
2017-10-01T16:05:32.337Z,18.20
2017-10-01T16:07:59.731Z,18.30
2017-10-01T16:10:27.346Z,18.30
2017-10-01T16:12:54.210Z,18.30
2017-10-01T16:15:21.980Z,18.20
2017-10-01T16:17:48.843Z,18.20
2017-10-01T16:20:15.853Z,18.10
2017-10-01T16:22:42.729Z,18.00
2017-10-01T16:25:09.611Z,18.00
2017-10-01T16:27:37.352Z,17.90
2017-10-01T16:30:04.213Z,17.80
2017-10-01T16:32:31.186Z,17.70
2017-10-01T16:34:58.403Z,17.50
2017-10-01T16:40:18.695Z,17.30
2017-10-01T16:42:45.621Z,17.20
2017-10-01T16:45:12.651Z,17.10
2017-10-01T16:47:39.523Z,17.00
2017-10-01T16:50:06.484Z,16.90
2017-10-01T16:52:33.384Z,16.70
2017-10-01T16:55:00.332Z,16.60
2017-10-01T16:57:27.882Z,16.50
2017-10-01T16:59:54.827Z,16.30
2017-10-01T17:02:22.425Z,16.20
2017-10-01T17:04:49.360Z,16.20
2017-10-01T17:07:16.246Z,16.20
2017-10-01T17:09:43.180Z,16.10
2017-10-01T17:12:10.073Z,16.10
2017-10-01T17:14:36.944Z,16.00
2017-10-01T17:17:03.859Z,16.00
2017-10-01T17:19:30.799Z,15.90
2017-10-01T17:21:58.446Z,15.80
2017-10-01T17:24:25.372Z,15.80
2017-10-01T17:29:46.308Z,15.60
2017-10-01T17:32:13.252Z,15.40
2017-10-01T17:34:40.856Z,15.20
2017-10-01T17:37:07.852Z,15.20
2017-10-01T17:39:35.465Z,15.10
2017-10-01T17:42:02.471Z,15.00
2017-10-01T17:44:30.162Z,15.00
2017-10-01T17:46:57.888Z,15.00
2017-10-01T17:49:25.563Z,14.80
2017-10-01T17:51:53.200Z,14.80
2017-10-01T17:54:20.180Z,14.80
2017-10-01T17:56:47.121Z,14.80
2017-10-01T17:59:14.060Z,14.80
2017-10-01T18:01:41.014Z,14.80
2017-10-01T18:04:08.645Z,14.60
2017-10-01T18:06:36.354Z,14.50
2017-10-01T18:09:03.506Z,14.40
2017-10-01T18:11:30.541Z,14.40
2017-10-01T18:13:57.587Z,14.20
2017-10-01T18:16:25.282Z,14.10
2017-10-01T18:18:52.253Z,14.10
2017-10-01T18:21:19.230Z,14.10
2017-10-01T18:23:47.159Z,14.20
2017-10-01T18:26:14.083Z,14.20
2017-10-01T18:28:41.106Z,14.20
2017-10-01T18:31:08.938Z,14.20
2017-10-01T18:33:35.869Z,14.10
2017-10-01T18:36:02.861Z,14.10
2017-10-01T18:38:30.663Z,14.00
2017-10-01T18:40:59.336Z,13.90
2017-10-01T18:43:26.284Z,13.90
2017-10-01T18:45:53.271Z,13.80
2017-10-01T18:48:20.229Z,13.80
2017-10-01T18:50:47.306Z,13.70
2017-10-01T18:53:15.076Z,13.70
2017-10-01T18:55:42.012Z,13.60
2017-10-01T18:58:09.699Z,13.60
2017-10-01T19:00:36.703Z,13.60
2017-10-01T19:03:03.624Z,13.60
2017-10-01T19:05:30.480Z,13.60
2017-10-01T19:07:57.457Z,13.60
2017-10-01T19:10:24.447Z,13.60
2017-10-01T19:12:51.413Z,13.60
2017-10-01T19:15:18.315Z,13.60
2017-10-01T19:17:45.275Z,13.60
2017-10-01T19:20:12.297Z,13.60
2017-10-01T19:22:39.961Z,13.60
2017-10-01T19:25:06.967Z,13.50
2017-10-01T19:27:33.933Z,13.50
2017-10-01T19:30:01.100Z,13.50
2017-10-01T19:32:28.064Z,13.50
2017-10-01T19:34:55.709Z,13.60
2017-10-01T19:37:22.657Z,13.60
2017-10-01T19:39:50.293Z,13.60
2017-10-01T19:42:17.221Z,13.60
2017-10-01T19:44:44.308Z,13.60
2017-10-01T19:47:12.200Z,13.50
2017-10-01T19:49:39.090Z,13.50
2017-10-01T19:52:06.100Z,13.40
2017-10-01T19:54:33.030Z,13.40
2017-10-01T19:56:59.990Z,13.30
2017-10-01T19:59:27.193Z,13.30
2017-10-01T20:01:54.228Z,13.30
2017-10-01T20:04:21.487Z,13.30
2017-10-01T20:06:48.432Z,13.30
2017-10-01T20:09:15.359Z,13.20
2017-10-01T20:11:42.258Z,13.20
2017-10-01T20:14:10.024Z,13.10
2017-10-01T20:16:37.662Z,13.00
2017-10-01T20:19:04.602Z,13.00
2017-10-01T20:21:31.587Z,13.00
2017-10-01T20:23:58.529Z,13.00
2017-10-01T20:26:25.493Z,13.00
2017-10-01T20:28:52.535Z,13.00
2017-10-01T20:31:19.517Z,13.00
2017-10-01T20:33:46.488Z,12.90
2017-10-01T20:36:13.410Z,12.90
2017-10-01T20:38:40.388Z,12.90
2017-10-01T20:41:07.323Z,12.90
2017-10-01T20:43:34.196Z,12.90
2017-10-01T20:46:01.361Z,12.90
2017-10-01T20:48:28.206Z,12.90
2017-10-01T20:50:55.107Z,12.90
2017-10-01T20:53:22.156Z,12.90
2017-10-01T20:55:49.026Z,12.80
2017-10-01T20:58:15.886Z,12.60
2017-10-01T21:00:42.881Z,12.70
2017-10-01T21:03:09.741Z,12.60
2017-10-01T21:05:36.606Z,12.60
2017-10-01T21:08:03.530Z,12.60
2017-10-01T21:10:30.625Z,12.70
2017-10-01T21:12:57.700Z,12.70
2017-10-01T21:15:24.573Z,12.70
2017-10-01T21:17:51.588Z,12.70
2017-10-01T21:20:18.443Z,12.70
2017-10-01T21:22:45.306Z,12.80
2017-10-01T21:25:12.262Z,12.70
2017-10-01T21:27:39.132Z,12.70
2017-10-01T21:30:06.745Z,12.50
2017-10-01T21:32:33.664Z,12.50
2017-10-01T21:35:00.527Z,12.50
2017-10-01T21:37:27.394Z,12.50
2017-10-01T21:39:54.340Z,12.50
2017-10-01T21:42:21.229Z,12.20
2017-10-01T21:44:48.139Z,12.10
2017-10-01T21:47:15.018Z,12.10
2017-10-01T21:49:42.020Z,12.20
2017-10-01T21:52:08.897Z,12.30
2017-10-01T21:54:35.852Z,12.40
2017-10-01T21:57:02.864Z,12.40
2017-10-01T21:59:29.705Z,12.50
2017-10-01T22:01:56.581Z,12.60
2017-10-01T22:04:23.508Z,12.70
2017-10-01T22:06:50.400Z,12.70
2017-10-01T22:09:17.381Z,12.80
2017-10-01T22:11:44.336Z,12.80
2017-10-01T22:14:11.249Z,12.80
2017-10-01T22:16:38.304Z,12.90
2017-10-01T22:19:05.313Z,12.90
2017-10-01T22:21:32.164Z,13.00
2017-10-01T22:23:59.105Z,12.90
2017-10-01T22:26:26.050Z,13.00
2017-10-01T22:28:52.930Z,13.00
2017-10-01T22:31:19.883Z,12.90
2017-10-01T22:33:46.760Z,12.90
2017-10-01T22:36:13.729Z,13.00
2017-10-01T22:38:41.315Z,13.00
2017-10-01T22:41:08.175Z,12.90
2017-10-01T22:43:35.177Z,13.00
2017-10-01T22:46:02.846Z,13.00
2017-10-01T22:48:30.498Z,13.00
2017-10-01T22:50:57.512Z,13.00
2017-10-01T22:53:24.445Z,12.90
2017-10-01T22:55:51.382Z,12.80
2017-10-01T22:58:18.256Z,12.80
2017-10-01T23:00:45.206Z,12.60
2017-10-01T23:03:12.100Z,12.60
2017-10-01T23:05:38.961Z,12.70
2017-10-01T23:08:05.904Z,12.50
2017-10-01T23:10:32.773Z,12.80
2017-10-01T23:12:59.748Z,12.80
2017-10-01T23:15:26.628Z,12.90
2017-10-01T23:17:53.636Z,12.90
2017-10-01T23:20:20.505Z,12.70
2017-10-01T23:22:47.372Z,12.60
2017-10-01T23:25:14.325Z,12.60
2017-10-01T23:27:41.199Z,12.60
2017-10-01T23:30:08.125Z,12.60
2017-10-01T23:32:35.065Z,12.60
2017-10-01T23:35:01.937Z,12.60
2017-10-01T23:37:28.814Z,12.70
2017-10-01T23:39:55.739Z,12.80
2017-10-01T23:42:22.617Z,12.80
2017-10-01T23:44:49.533Z,12.90
2017-10-01T23:47:16.459Z,13.00
2017-10-01T23:49:43.462Z,13.00
2017-10-01T23:52:10.324Z,13.00
2017-10-01T23:54:37.190Z,13.00
2017-10-01T23:57:04.124Z,13.00
2017-10-01T23:59:31.060Z,13.00
